createdAt,value
2023-04-02T00:01:57.741Z,96979.48
2023-04-02T00:06:01.613Z,96978.02
2023-04-02T00:09:37.269Z,96982.64
2023-04-02T00:13:10.461Z,96980.09
2023-04-02T00:16:27.453Z,96983.45
2023-04-02T00:20:08.160Z,96987.25
2023-04-02T00:23:46.619Z,96994.09
2023-04-02T00:27:20.896Z,96995.23
2023-04-02T00:31:00.305Z,96994.33
2023-04-02T00:34:55.461Z,96993.96
2023-04-02T00:38:22.586Z,96996.67
2023-04-02T00:42:12.238Z,96998.15
2023-04-02T00:45:33.496Z,96998.64
2023-04-02T00:49:15.364Z,96998.42
2023-04-02T00:52:47.300Z,96999.60
2023-04-02T00:56:43.725Z,96997.34
2023-04-02T01:00:21.914Z,97000.13
2023-04-02T01:03:38.009Z,97001.72
2023-04-02T01:07:54.397Z,97001.25
2023-04-02T01:11:07.516Z,97006.38
2023-04-02T01:14:36.556Z,97012.46
2023-04-02T01:18:51.347Z,97011.48
2023-04-02T01:21:57.613Z,97010.06
2023-04-02T01:26:13.031Z,97011.44
2023-04-02T01:29:25.757Z,97008.14
2023-04-02T01:32:54.568Z,97011.25
2023-04-02T01:37:22.032Z,97014.06
2023-04-02T01:41:08.169Z,97011.78
2023-04-02T01:44:24.066Z,97015.95
2023-04-02T01:47:51.389Z,97016.19
2023-04-02T01:51:52.350Z,97020.52
2023-04-02T01:55:06.592Z,97021.02
2023-04-02T01:58:42.233Z,97021.71
2023-04-02T02:02:21.955Z,97027.27
2023-04-02T02:05:58.569Z,97033.30
2023-04-02T02:09:54.639Z,97040.58
2023-04-02T02:13:16.737Z,97043.17
2023-04-02T02:16:53.563Z,97046.74
2023-04-02T02:20:29.193Z,97046.30
2023-04-02T02:24:17.146Z,97050.11
2023-04-02T02:27:46.409Z,97048.43
2023-04-02T02:31:33.330Z,97048.69
2023-04-02T02:35:08.073Z,97050.75
2023-04-02T02:38:48.304Z,97053.85
2023-04-02T02:42:24.327Z,97054.59
2023-04-02T02:45:55.732Z,97054.89
2023-04-02T02:49:40.853Z,97059.50
2023-04-02T02:53:17.893Z,97070.34
2023-04-02T02:56:54.344Z,97069.34
2023-04-02T03:00:27.923Z,97075.82
2023-04-02T03:04:01.119Z,97079.20
2023-04-02T03:07:38.349Z,97083.52
2023-04-02T03:11:55.587Z,97085.10
2023-04-02T03:15:31.665Z,97087.87
2023-04-02T03:18:55.931Z,97087.30
2023-04-02T03:22:54.372Z,97090.08
2023-04-02T03:26:24.961Z,97091.02
2023-04-02T03:29:40.435Z,97093.14
2023-04-02T03:33:43.188Z,97096.45
2023-04-02T03:37:05.331Z,97096.46
2023-04-02T03:40:59.729Z,97101.02
2023-04-02T03:44:19.542Z,97104.45
2023-04-02T03:47:47.981Z,97110.64
2023-04-02T03:51:30.680Z,97110.70
2023-04-02T03:55:02.409Z,97116.77
2023-04-02T03:58:47.730Z,97120.91
2023-04-02T04:02:26.843Z,97127.55
2023-04-02T04:06:06.066Z,97132.30
2023-04-02T04:09:33.587Z,97138.51
2023-04-02T04:13:18.544Z,97137.05
2023-04-02T04:16:54.196Z,97139.34
2023-04-02T04:20:36.654Z,97145.08
2023-04-02T04:24:23.344Z,97152.69
2023-04-02T04:27:39.892Z,97157.58
2023-04-02T04:31:26.832Z,97164.10
2023-04-02T04:35:01.122Z,97167.13
2023-04-02T04:38:39.389Z,97171.59
2023-04-02T04:42:19.618Z,97176.88
2023-04-02T04:46:03.821Z,97181.14
2023-04-02T04:49:56.169Z,97184.48
2023-04-02T04:53:13.841Z,97185.90
2023-04-02T04:56:42.335Z,97194.37
2023-04-02T05:00:29.158Z,97197.02
2023-04-02T05:04:22.744Z,97199.46
2023-04-02T05:07:43.106Z,97204.57
2023-04-02T05:11:22.233Z,97211.16
2023-04-02T05:15:02.524Z,97213.69
2023-04-02T05:18:52.482Z,97218.45
2023-04-02T05:22:41.994Z,97224.09
2023-04-02T05:25:59.841Z,97231.30
2023-04-02T05:29:33.323Z,97239.77
2023-04-02T05:33:08.083Z,97243.75
2023-04-02T05:36:39.510Z,97250.14
2023-04-02T05:40:51.757Z,97259.41
2023-04-02T05:44:22.453Z,97266.89
2023-04-02T05:47:35.952Z,97272.65
2023-04-02T05:51:18.861Z,97277.55
2023-04-02T05:54:58.384Z,97283.05
2023-04-02T05:58:37.030Z,97289.64
2023-04-02T06:02:25.558Z,97292.64
2023-04-02T06:05:45.448Z,97298.10
2023-04-02T06:09:53.359Z,97305.26
2023-04-02T06:16:30.940Z,97317.73
2023-04-02T06:20:06.810Z,97327.48
2023-04-02T06:24:01.834Z,97330.33
2023-04-02T06:27:28.316Z,97339.80
2023-04-02T06:31:41.406Z,97347.84
2023-04-02T06:35:07.452Z,97355.10
2023-04-02T06:38:44.179Z,97360.68
2023-04-02T06:42:30.428Z,97366.72
2023-04-02T06:46:35.980Z,97373.44
2023-04-02T06:50:47.220Z,97382.23
2023-04-02T06:54:29.353Z,97386.74
2023-04-02T06:58:17.284Z,97392.41
2023-04-02T07:02:03.727Z,97393.78
2023-04-02T07:05:29.647Z,97394.73
2023-04-02T07:09:07.652Z,97399.70
2023-04-02T07:12:45.045Z,97407.23
2023-04-02T07:16:25.771Z,97409.80
2023-04-02T07:20:00.319Z,97418.59
2023-04-02T07:23:57.644Z,97423.58
2023-04-02T07:27:39.819Z,97435.06
2023-04-02T07:31:27.438Z,97444.02
2023-04-02T07:34:50.252Z,97453.52
2023-04-02T07:38:28.052Z,97462.10
2023-04-02T07:42:05.554Z,97461.23
2023-04-02T07:45:43.268Z,97474.40
2023-04-02T07:49:39.866Z,97481.84
2023-04-02T07:53:03.641Z,97488.11
2023-04-02T07:56:40.422Z,97494.89
2023-04-02T08:00:18.974Z,97501.44
2023-04-02T08:04:22.051Z,97504.40
2023-04-02T08:08:04.427Z,97506.97
2023-04-02T08:11:29.676Z,97518.66
2023-04-02T08:15:07.061Z,97528.56
2023-04-02T08:19:02.155Z,97535.64
2023-04-02T08:22:24.725Z,97535.30
2023-04-02T08:26:03.319Z,97544.13
2023-04-02T08:30:04.855Z,97550.04
2023-04-02T08:33:30.106Z,97551.92
2023-04-02T08:37:08.575Z,97552.50
2023-04-02T08:40:45.958Z,97554.84
2023-04-02T08:44:27.370Z,97555.11
2023-04-02T08:47:59.915Z,97556.83
2023-04-02T08:51:54.955Z,97560.64
2023-04-02T08:55:20.091Z,97564.69
2023-04-02T08:59:31.880Z,97569.48
2023-04-02T09:03:30.727Z,97573.15
2023-04-02T09:07:16.328Z,97581.45
2023-04-02T09:10:52.716Z,97582.67
2023-04-02T09:14:20.486Z,97588.94
2023-04-02T09:18:11.596Z,97595.38
2023-04-02T09:21:59.460Z,97598.93
2023-04-02T09:25:54.281Z,97607.80
2023-04-02T09:29:39.899Z,97607.15
2023-04-02T09:33:09.068Z,97612.48
2023-04-02T09:36:41.583Z,97616.98
2023-04-02T09:40:44.875Z,97624.25
2023-04-02T09:44:23.142Z,97629.22
2023-04-02T09:47:47.710Z,97637.42
2023-04-02T09:51:27.877Z,97644.76
2023-04-02T09:55:27.590Z,97652.77
2023-04-02T09:59:15.445Z,97654.30
2023-04-02T10:02:41.423Z,97654.89
2023-04-02T10:06:18.538Z,97655.64
2023-04-02T10:10:00.355Z,97652.23
2023-04-02T10:13:49.206Z,97659.22
2023-04-02T10:17:23.252Z,97666.04
2023-04-02T10:20:54.383Z,97673.30
2023-04-02T10:24:29.231Z,97681.20
2023-04-02T10:28:38.368Z,97684.27
2023-04-02T10:32:39.024Z,97691.36
2023-04-02T10:36:21.387Z,97695.27
2023-04-02T10:39:59.708Z,97700.44
2023-04-02T10:43:48.427Z,97696.09
2023-04-02T10:47:27.244Z,97702.46
2023-04-02T10:51:02.270Z,97709.52
2023-04-02T10:54:59.941Z,97711.91
2023-04-02T10:58:31.803Z,97715.82
2023-04-02T11:02:06.914Z,97718.64
2023-04-02T11:05:51.309Z,97719.55
2023-04-02T11:09:24.925Z,97722.02
2023-04-02T11:13:05.454Z,97728.23
2023-04-02T11:16:35.132Z,97732.67
2023-04-02T11:20:47.880Z,97737.17
2023-04-02T11:24:33.559Z,97743.02
2023-04-02T11:28:30.894Z,97746.98
2023-04-02T11:32:15.634Z,97755.25
2023-04-02T11:35:40.983Z,97760.19
2023-04-02T11:39:56.797Z,97763.88
2023-04-02T11:43:38.062Z,97768.52
2023-04-02T11:47:34.898Z,97775.98
2023-04-02T11:51:21.918Z,97777.63
2023-04-02T11:54:44.576Z,97779.41
2023-04-02T11:58:55.377Z,97786.58
2023-04-02T12:02:56.015Z,97789.25
2023-04-02T12:06:46.413Z,97792.20
2023-04-02T12:10:33.720Z,97792.84
2023-04-02T12:13:58.573Z,97790.93
2023-04-02T12:17:40.612Z,97793.38
2023-04-02T12:21:17.721Z,97801.23
2023-04-02T12:25:20.127Z,97804.65
2023-04-02T12:28:46.556Z,97806.54
2023-04-02T12:32:31.011Z,97808.38
2023-04-02T12:36:20.784Z,97819.58
2023-04-02T12:39:54.339Z,97824.52
2023-04-02T12:43:35.043Z,97827.69
2023-04-02T12:47:02.436Z,97830.52
2023-04-02T12:50:41.767Z,97835.02
2023-04-02T12:54:45.575Z,97838.24
2023-04-02T12:58:26.597Z,97837.34
2023-04-02T13:02:04.484Z,97847.97
2023-04-02T13:05:44.616Z,97852.70
2023-04-02T13:09:28.707Z,97857.90
2023-04-02T13:13:03.196Z,97866.57
2023-04-02T13:16:37.279Z,97872.15
2023-04-02T13:20:31.642Z,97875.88
2023-04-02T13:24:19.615Z,97876.64
2023-04-02T13:28:03.144Z,97882.23
2023-04-02T13:31:28.567Z,97883.99
2023-04-02T13:35:14.129Z,97892.05
2023-04-02T13:38:42.135Z,97896.99
2023-04-02T13:42:19.338Z,97901.69
2023-04-02T13:45:59.895Z,97902.40
2023-04-02T13:49:34.814Z,97908.79
2023-04-02T13:53:30.102Z,97906.12
2023-04-02T13:56:57.048Z,97913.36
2023-04-02T14:00:32.671Z,97914.73
2023-04-02T14:04:13.789Z,97916.67
2023-04-02T14:08:02.036Z,97913.65
2023-04-02T14:11:26.364Z,97911.79
2023-04-02T14:16:01.148Z,97918.73
2023-04-02T14:19:42.599Z,97923.75
2023-04-02T14:23:31.693Z,97925.16
2023-04-02T14:27:19.357Z,97933.02
2023-04-02T14:31:06.997Z,97940.89
2023-04-02T14:34:46.993Z,97949.45
2023-04-02T14:38:40.516Z,97950.27
2023-04-02T14:42:14.160Z,97954.25
2023-04-02T14:46:05.150Z,97958.17
2023-04-02T14:49:53.968Z,97959.35
2023-04-02T14:53:51.972Z,97962.27
2023-04-02T14:57:40.570Z,97964.13
2023-04-02T15:01:14.092Z,97967.41
2023-04-02T15:04:53.326Z,97971.02
2023-04-02T15:08:36.138Z,97975.64
2023-04-02T15:12:12.578Z,97980.50
2023-04-02T15:15:47.588Z,97989.84
2023-04-02T15:19:18.193Z,97993.58
2023-04-02T15:23:28.512Z,97999.63
2023-04-02T15:27:43.280Z,98001.30
2023-04-02T15:31:15.918Z,98007.30
2023-04-02T15:35:05.245Z,98013.91
2023-04-02T15:38:37.958Z,98020.48
2023-04-02T15:42:29.891Z,98026.84
2023-04-02T15:46:09.237Z,98027.88
2023-04-02T15:50:07.091Z,98028.28
2023-04-02T15:53:49.434Z,98036.26
2023-04-02T15:58:01.572Z,98041.56
2023-04-02T16:01:39.049Z,98050.73
2023-04-02T16:05:53.551Z,98054.27
2023-04-02T16:09:23.298Z,98059.73
2023-04-02T16:12:56.296Z,98063.56
2023-04-02T16:16:34.233Z,98068.83
2023-04-02T16:20:18.374Z,98072.09
2023-04-02T16:23:46.862Z,98076.46
2023-04-02T16:27:40.525Z,98078.48
2023-04-02T16:31:28.473Z,98078.00
2023-04-02T16:39:49.063Z,98091.00
2023-04-02T16:43:33.990Z,98095.08
2023-04-02T16:47:49.338Z,98099.27
2023-04-02T16:51:50.908Z,98102.13
2023-04-02T16:56:01.635Z,98109.41
2023-04-02T16:59:49.150Z,98110.85
2023-04-02T17:04:00.978Z,98116.83
2023-04-02T17:07:46.956Z,98121.34
2023-04-02T17:11:17.896Z,98127.23
2023-04-02T17:14:54.720Z,98125.90
2023-04-02T17:18:26.552Z,98130.39
2023-04-02T17:22:24.121Z,98136.79
2023-04-02T17:25:53.778Z,98139.73
2023-04-02T17:29:47.384Z,98142.71
2023-04-02T17:33:16.819Z,98152.26
2023-04-02T17:37:11.215Z,98152.26
2023-04-02T17:41:07.363Z,98155.27
2023-04-02T17:44:33.123Z,98159.25
2023-04-02T17:48:44.038Z,98162.11
2023-04-02T17:52:33.966Z,98167.42
2023-04-02T17:56:17.640Z,98173.77
2023-04-02T17:59:49.733Z,98175.15
2023-04-02T18:03:28.008Z,98179.71
2023-04-02T18:07:37.541Z,98181.09
2023-04-02T18:11:47.325Z,98184.73
2023-04-02T18:15:36.699Z,98191.52
2023-04-02T18:19:13.656Z,98193.95
2023-04-02T18:23:27.078Z,98198.61
2023-04-02T18:27:29.091Z,98205.96
2023-04-02T18:31:24.033Z,98207.64
2023-04-02T18:35:34.695Z,98210.36
2023-04-02T18:39:13.986Z,98213.42
2023-04-02T18:43:06.040Z,98219.56
2023-04-02T18:46:47.940Z,98222.16
2023-04-02T18:50:38.608Z,98232.27
2023-04-02T18:54:10.542Z,98232.98
2023-04-02T18:57:42.690Z,98239.86
2023-04-02T19:01:23.955Z,98239.21
2023-04-02T19:05:07.297Z,98242.29
2023-04-02T19:08:41.663Z,98250.57
2023-04-02T19:12:19.321Z,98251.78
2023-04-02T19:16:15.474Z,98254.40
2023-04-02T19:20:24.569Z,98258.86
2023-04-02T19:24:02.924Z,98261.81
2023-04-02T19:27:33.795Z,98265.98
2023-04-02T19:31:43.199Z,98264.98
2023-04-02T19:35:23.243Z,98267.31
2023-04-02T19:39:46.070Z,98274.58
2023-04-02T19:43:10.725Z,98277.01
2023-04-02T19:47:05.480Z,98281.58
2023-04-02T19:50:29.156Z,98290.81
2023-04-02T19:54:25.091Z,98290.67
2023-04-02T19:57:52.713Z,98292.50
2023-04-02T20:01:43.878Z,98297.07
2023-04-02T20:05:07.067Z,98296.72
2023-04-02T20:09:06.560Z,98298.88
2023-04-02T20:12:30.247Z,98299.94
2023-04-02T20:16:07.929Z,98304.60
2023-04-02T20:19:45.878Z,98302.58
2023-04-02T20:23:23.172Z,98307.84
2023-04-02T20:27:00.057Z,98314.88
2023-04-02T20:30:37.888Z,98314.02
2023-04-02T20:34:15.550Z,98320.18
2023-04-02T20:37:52.952Z,98322.69
2023-04-02T20:41:31.707Z,98329.17
2023-04-02T20:45:09.381Z,98333.09
2023-04-02T20:49:04.818Z,98333.35
2023-04-02T20:52:46.288Z,98339.31
2023-04-02T20:56:13.926Z,98342.83
2023-04-02T20:59:46.598Z,98342.33
2023-04-02T21:03:43.534Z,98348.03
2023-04-02T21:07:08.186Z,98353.38
2023-04-02T21:10:44.582Z,98355.17
2023-04-02T21:14:22.043Z,98357.77
2023-04-02T21:18:19.054Z,98359.98
2023-04-02T21:21:44.964Z,98361.38
2023-04-02T21:25:20.543Z,98361.11
2023-04-02T21:29:20.479Z,98361.53
2023-04-02T21:33:04.454Z,98363.23
2023-04-02T21:36:33.114Z,98369.80
2023-04-02T21:40:23.719Z,98374.48
2023-04-02T21:44:06.559Z,98374.98
2023-04-02T21:47:30.447Z,98381.35
2023-04-02T21:51:33.675Z,98381.67
2023-04-02T21:54:57.551Z,98382.91
2023-04-02T21:58:35.772Z,98383.55
2023-04-02T22:02:13.388Z,98382.21
2023-04-02T22:06:00.848Z,98392.18
2023-04-02T22:09:29.611Z,98395.41
2023-04-02T22:13:06.631Z,98394.87
2023-04-02T22:16:43.871Z,98400.36
2023-04-02T22:20:40.504Z,98402.38
2023-04-02T22:24:05.258Z,98404.39
2023-04-02T22:27:40.767Z,98409.25
2023-04-02T22:31:21.530Z,98408.46
2023-04-02T22:34:57.238Z,98413.37
2023-04-02T22:38:52.857Z,98410.23
2023-04-02T22:42:34.610Z,98410.34
2023-04-02T22:45:58.464Z,98414.75
2023-04-02T22:49:34.842Z,98413.84
2023-04-02T22:53:15.262Z,98418.27
2023-04-02T22:56:50.117Z,98421.13
2023-04-02T23:00:47.876Z,98419.77
2023-04-02T23:04:29.147Z,98427.43
2023-04-02T23:07:51.233Z,98427.57
2023-04-02T23:11:28.967Z,98424.36
2023-04-02T23:15:07.230Z,98428.29
2023-04-02T23:18:48.008Z,98426.79
2023-04-02T23:22:22.240Z,98429.91
2023-04-02T23:26:22.946Z,98433.76
2023-04-02T23:29:45.619Z,98438.33
2023-04-02T23:33:23.090Z,98434.55
2023-04-02T23:37:00.912Z,98439.09
2023-04-02T23:40:38.474Z,98442.94
2023-04-02T23:44:15.984Z,98438.42
2023-04-02T23:47:54.070Z,98438.84
2023-04-02T23:51:32.377Z,98434.82
2023-04-02T23:55:28.162Z,98435.52
2023-04-02T23:58:51.027Z,98434.66
